Rina Amoretti — IBRR — position and weather

sailwx.info

Track history (hours):
 
Tides and Currents Weather Stations Pressure Air Temp Water Temp Dewpoint Dewpoint Depression Visibility Wind Speed Wind Dir Waves Ship Positions

Rina Amoretti

Last reported at 2015-Apr-15 10:14 UTC. Time now 2015-Apr-18 03:27 UTC.
Position N 40°21' E 014°16'.

Length 119 m; draft 6.5 m.

Type: Tanker. MMSI: 247197000.

Date/timePositionNaut miles runAvg speedWind from/ knotsBaromVisibWave heightAir tempDewpointWater temp
2015-Apr-15 10:14N 40°21' E 014°16'913.3
2015-Apr-15 09:33N 40°29' E 014°10'1212.5
2015-Apr-15 08:33N 40°42' E 014°13'9 4.2
2015-Apr-15 06:20N 40°50' E 014°18'0 0.0
2015-Apr-15 05:26N 40°50' E 014°18'0 0.0
2015-Apr-15 02:05N 40°50' E 014°18'0 0.0
2015-Apr-14 23:17N 40°50' E 014°18'0 0.0
2015-Apr-14 22:26N 40°50' E 014°18'0 0.0
2015-Apr-14 18:08N 40°50' E 014°18'0 0.0
2015-Apr-14 17:17N 40°50' E 014°18'0 0.0
2015-Apr-14 11:04N 40°50' E 014°18'0 0.0
2015-Apr-14 07:25N 40°50' E 014°18'2 0.6
2015-Apr-14 04:06N 40°48' E 014°19'0 0.0
2015-Apr-14 03:30N 40°48' E 014°19'0 0.0
2015-Apr-14 02:27N 40°48' E 014°19'0 0.0
2015-Apr-14 00:27N 40°48' E 014°19'0 0.0
2015-Apr-13 23:30N 40°48' E 014°19'0 0.0
2015-Apr-13 22:26N 40°48' E 014°19'0 0.0
2015-Apr-13 20:17N 40°48' E 014°19'0 0.0
2015-Apr-13 18:19N 40°48' E 014°19'6 7.1
2015-Apr-13 17:31N 40°44' E 014°15'1212.1
2015-Apr-13 16:33N 40°33' E 014°09'1412.2
2015-Apr-13 15:24N 40°20' E 014°17'1112.3
2015-Apr-13 14:31N 40°11' E 014°24'1412.3
2015-Apr-13 13:24N 39°59' E 014°33'1112.6
2015-Apr-13 12:32N 39°49' E 014°39'1513.0
2015-Apr-13 11:24N 39°37' E 014°49'  
2015-Apr-11 05:13N 38°19' E 015°23'913.0
2015-Apr-11 04:32N 38°18' E 015°11'5413.4
2015-Apr-11 00:32N 38°12' E 014°03'1313.3
2015-Apr-10 23:33N 38°11' E 013°47'1313.0
2015-Apr-10 22:33N 38°09' E 013°31'5 4.8
2015-Apr-10 21:33N 38°06' E 013°26'0 0.0
2015-Apr-10 20:33N 38°06' E 013°26'0 0.0
2015-Apr-10 19:33N 38°06' E 013°26'0 0.0
2015-Apr-10 18:33N 38°06' E 013°26'0 0.0
2015-Apr-10 17:33N 38°06' E 013°26'0 0.0
2015-Apr-10 16:33N 38°06' E 013°26'0 0.0
2015-Apr-10 15:33N 38°06' E 013°26'0 0.0
2015-Apr-10 14:33N 38°06' E 013°26'0 0.0
2015-Apr-10 13:33N 38°06' E 013°26'0 0.0
2015-Apr-10 12:33N 38°06' E 013°26'0 0.0
2015-Apr-10 11:33N 38°06' E 013°26'0 0.0
2015-Apr-10 10:33N 38°06' E 013°26'0 0.0
2015-Apr-10 09:33N 38°06' E 013°26'0 0.0
2015-Apr-10 08:33N 38°06' E 013°26'0 0.0
2015-Apr-10 07:33N 38°06' E 013°26'0 0.0
2015-Apr-10 06:33N 38°06' E 013°26'2 2.1
2015-Apr-10 05:32N 38°07' E 013°29'0 0.0
2015-Apr-10 04:32N 38°07' E 013°29'0 0.0
2015-Apr-10 03:32N 38°07' E 013°29'0 0.0
2015-Apr-10 02:32N 38°07' E 013°29'0 0.0
2015-Apr-10 01:29N 38°07' E 013°29'0 0.0
2015-Apr-10 00:32N 38°07' E 013°29'0 0.0
2015-Apr-09 23:32N 38°07' E 013°29'0 0.1
2015-Apr-09 22:32N 38°07' E 013°29'0 0.0
2015-Apr-09 21:32N 38°07' E 013°29'0 0.0
2015-Apr-09 20:32N 38°07' E 013°29'0 0.0
2015-Apr-09 19:32N 38°07' E 013°29'0 0.0
2015-Apr-09 18:29N 38°07' E 013°29'0 0.0
2015-Apr-09 17:32N 38°07' E 013°29'0 0.0
2015-Apr-09 16:29N 38°07' E 013°29'0 0.0
2015-Apr-09 15:32N 38°07' E 013°29'0 0.0
2015-Apr-09 14:32N 38°07' E 013°29'0 0.0
2015-Apr-09 13:32N 38°07' E 013°29'0 0.0
2015-Apr-09 12:32N 38°07' E 013°29'0 0.0
2015-Apr-09 11:32N 38°07' E 013°29'0 0.0
2015-Apr-09 10:26N 38°07' E 013°29'0 0.0
2015-Apr-09 09:32N 38°07' E 013°29'0 0.0
2015-Apr-09 08:32N 38°07' E 013°29'0 0.0
2015-Apr-09 07:32N 38°07' E 013°29'0 0.0
2015-Apr-09 06:32N 38°07' E 013°29'0 0.0
2015-Apr-09 05:32N 38°07' E 013°29'1 0.7
2015-Apr-09 04:33N 38°08' E 013°29'9 8.6
2015-Apr-09 03:33N 38°10' E 013°39'1111.0
2015-Apr-09 02:32N 38°11' E 013°54'  
Track history (hours):
 
Tides and Currents Weather Stations Pressure Air Temp Water Temp Dewpoint Dewpoint Depression Visibility Wind Speed Wind Dir Waves Ship Positions

Rina Amoretti

Last reported at 2015-Apr-15 10:14 UTC. Time now 2015-Apr-18 03:27 UTC.
Position N 40°21' E 014°16'.

Length 119 m; draft 6.5 m.

Type: Tanker. MMSI: 247197000.

Date/timePositionNaut miles runAvg speedWind from/ knotsBaromVisibWave heightAir tempDewpointWater temp
2015-Apr-15 10:14N 40°21' E 014°16'913.3
2015-Apr-15 09:33N 40°29' E 014°10'1212.5
2015-Apr-15 08:33N 40°42' E 014°13'9 4.2
2015-Apr-15 06:20N 40°50' E 014°18'0 0.0
2015-Apr-15 05:26N 40°50' E 014°18'0 0.0
2015-Apr-15 02:05N 40°50' E 014°18'0 0.0
2015-Apr-14 23:17N 40°50' E 014°18'0 0.0
2015-Apr-14 22:26N 40°50' E 014°18'0 0.0
2015-Apr-14 18:08N 40°50' E 014°18'0 0.0
2015-Apr-14 17:17N 40°50' E 014°18'0 0.0
2015-Apr-14 11:04N 40°50' E 014°18'0 0.0
2015-Apr-14 07:25N 40°50' E 014°18'2 0.6
2015-Apr-14 04:06N 40°48' E 014°19'0 0.0
2015-Apr-14 03:30N 40°48' E 014°19'0 0.0
2015-Apr-14 02:27N 40°48' E 014°19'0 0.0
2015-Apr-14 00:27N 40°48' E 014°19'0 0.0
2015-Apr-13 23:30N 40°48' E 014°19'0 0.0
2015-Apr-13 22:26N 40°48' E 014°19'0 0.0
2015-Apr-13 20:17N 40°48' E 014°19'0 0.0
2015-Apr-13 18:19N 40°48' E 014°19'6 7.1
2015-Apr-13 17:31N 40°44' E 014°15'1212.1
2015-Apr-13 16:33N 40°33' E 014°09'1412.2
2015-Apr-13 15:24N 40°20' E 014°17'1112.3
2015-Apr-13 14:31N 40°11' E 014°24'1412.3
2015-Apr-13 13:24N 39°59' E 014°33'1112.6
2015-Apr-13 12:32N 39°49' E 014°39'1513.0
2015-Apr-13 11:24N 39°37' E 014°49'  
2015-Apr-11 05:13N 38°19' E 015°23'913.0
2015-Apr-11 04:32N 38°18' E 015°11'5413.4
2015-Apr-11 00:32N 38°12' E 014°03'1313.3
2015-Apr-10 23:33N 38°11' E 013°47'1313.0
2015-Apr-10 22:33N 38°09' E 013°31'5 4.8
2015-Apr-10 21:33N 38°06' E 013°26'0 0.0
2015-Apr-10 20:33N 38°06' E 013°26'0 0.0
2015-Apr-10 19:33N 38°06' E 013°26'0 0.0
2015-Apr-10 18:33N 38°06' E 013°26'0 0.0
2015-Apr-10 17:33N 38°06' E 013°26'0 0.0
2015-Apr-10 16:33N 38°06' E 013°26'0 0.0
2015-Apr-10 15:33N 38°06' E 013°26'0 0.0
2015-Apr-10 14:33N 38°06' E 013°26'0 0.0
2015-Apr-10 13:33N 38°06' E 013°26'0 0.0
2015-Apr-10 12:33N 38°06' E 013°26'0 0.0
2015-Apr-10 11:33N 38°06' E 013°26'0 0.0
2015-Apr-10 10:33N 38°06' E 013°26'0 0.0
2015-Apr-10 09:33N 38°06' E 013°26'0 0.0
2015-Apr-10 08:33N 38°06' E 013°26'0 0.0
2015-Apr-10 07:33N 38°06' E 013°26'0 0.0
2015-Apr-10 06:33N 38°06' E 013°26'2 2.1
2015-Apr-10 05:32N 38°07' E 013°29'0 0.0
2015-Apr-10 04:32N 38°07' E 013°29'0 0.0
2015-Apr-10 03:32N 38°07' E 013°29'0 0.0
2015-Apr-10 02:32N 38°07' E 013°29'0 0.0
2015-Apr-10 01:29N 38°07' E 013°29'0 0.0
2015-Apr-10 00:32N 38°07' E 013°29'0 0.0
2015-Apr-09 23:32N 38°07' E 013°29'0 0.1
2015-Apr-09 22:32N 38°07' E 013°29'0 0.0
2015-Apr-09 21:32N 38°07' E 013°29'0 0.0
2015-Apr-09 20:32N 38°07' E 013°29'0 0.0
2015-Apr-09 19:32N 38°07' E 013°29'0 0.0
2015-Apr-09 18:29N 38°07' E 013°29'0 0.0
2015-Apr-09 17:32N 38°07' E 013°29'0 0.0
2015-Apr-09 16:29N 38°07' E 013°29'0 0.0
2015-Apr-09 15:32N 38°07' E 013°29'0 0.0
2015-Apr-09 14:32N 38°07' E 013°29'0 0.0
2015-Apr-09 13:32N 38°07' E 013°29'0 0.0
2015-Apr-09 12:32N 38°07' E 013°29'0 0.0
2015-Apr-09 11:32N 38°07' E 013°29'0 0.0
2015-Apr-09 10:26N 38°07' E 013°29'0 0.0
2015-Apr-09 09:32N 38°07' E 013°29'0 0.0
2015-Apr-09 08:32N 38°07' E 013°29'0 0.0
2015-Apr-09 07:32N 38°07' E 013°29'0 0.0
2015-Apr-09 06:32N 38°07' E 013°29'0 0.0
2015-Apr-09 05:32N 38°07' E 013°29'1 0.7
2015-Apr-09 04:33N 38°08' E 013°29'9 8.6
2015-Apr-09 03:33N 38°10' E 013°39'1111.0
2015-Apr-09 02:32N 38°11' E 013°54'  

Dump ship's entire track history